sensor_id;sensor_type;location;lat;lon;timestamp;pressure;altitude;pressure_sealevel;temperature;humidity
55351;BME280;62194;49.480;10.986;2023-01-08T00:00:05;97800.03;;;3.58;90.11
55351;BME280;62194;49.480;10.986;2023-01-08T00:00:11;97799.25;;;3.58;90.15
55351;BME280;62194;49.480;10.986;2023-01-08T00:00:17;97796.84;;;3.56;90.41
55351;BME280;62194;49.480;10.986;2023-01-08T00:00:22;97796.84;;;3.56;90.38
55351;BME280;62194;49.480;10.986;2023-01-08T00:00:27;97798.75;;;3.56;90.14
55351;BME280;62194;49.480;10.986;2023-01-08T00:00:33;97798.28;;;3.54;90.36
55351;BME280;62194;49.480;10.986;2023-01-08T00:00:38;97796.69;;;3.52;90.50
55351;BME280;62194;49.480;10.986;2023-01-08T00:00:43;97799.38;;;3.52;90.44
55351;BME280;62194;49.480;10.986;2023-01-08T00:00:49;97800.47;;;3.51;90.52
55351;BME280;62194;49.480;10.986;2023-01-08T00:00:55;97800.47;;;3.51;90.51
55351;BME280;62194;49.480;10.986;2023-01-08T00:01:10;97797.00;;;3.51;90.26
55351;BME280;62194;49.480;10.986;2023-01-08T00:01:16;97798.13;;;3.50;90.42
55351;BME280;62194;49.480;10.986;2023-01-08T00:01:21;97803.50;;;3.50;90.64
55351;BME280;62194;49.480;10.986;2023-01-08T00:01:26;97803.50;;;3.50;90.72
55351;BME280;62194;49.480;10.986;2023-01-08T00:01:32;97798.41;;;3.48;90.36
55351;BME280;62194;49.480;10.986;2023-01-08T00:01:37;97803.50;;;3.50;90.22
55351;BME280;62194;49.480;10.986;2023-01-08T00:01:43;97802.69;;;3.49;90.42
55351;BME280;62194;49.480;10.986;2023-01-08T00:01:48;97801.91;;;3.49;90.60
55351;BME280;62194;49.480;10.986;2023-01-08T00:01:54;97796.50;;;3.49;90.77
55351;BME280;62194;49.480;10.986;2023-01-08T00:01:59;97799.97;;;3.49;90.33
55351;BME280;62194;49.480;10.986;2023-01-08T00:02:05;97794.59;;;3.49;90.67
55351;BME280;62194;49.480;10.986;2023-01-08T00:02:10;97803.50;;;3.50;90.37
55351;BME280;62194;49.480;10.986;2023-01-08T00:02:16;97796.50;;;3.49;90.57
55351;BME280;62194;49.480;10.986;2023-01-08T00:02:21;97799.19;;;3.49;90.63
55351;BME280;62194;49.480;10.986;2023-01-08T00:02:26;97797.28;;;3.49;90.86
55351;BME280;62194;49.480;10.986;2023-01-08T00:02:32;97791.44;;;3.47;90.52
55351;BME280;62194;49.480;10.986;2023-01-08T00:02:37;97798.13;;;3.50;90.59
55351;BME280;62194;49.480;10.986;2023-01-08T00:02:42;97800.81;;;3.50;90.34
55351;BME280;62194;49.480;10.986;2023-01-08T00:02:47;97794.59;;;3.49;90.59
55351;BME280;62194;49.480;10.986;2023-01-08T00:02:53;97793.00;;;3.48;90.15
55351;BME280;62194;49.480;10.986;2023-01-08T00:02:59;97799.97;;;3.49;90.49
55351;BME280;62194;49.480;10.986;2023-01-08T00:03:04;97797.78;;;3.51;90.36
55351;BME280;62194;49.480;10.986;2023-01-08T00:03:10;97795.88;;;3.52;90.28
55351;BME280;62194;49.480;10.986;2023-01-08T00:03:16;97790.03;;;3.50;90.55
55351;BME280;62194;49.480;10.986;2023-01-08T00:03:21;97791.91;;;3.49;90.30
55351;BME280;62194;49.480;10.986;2023-01-08T00:03:27;97787.63;;;3.48;90.22
55351;BME280;62194;49.480;10.986;2023-01-08T00:03:33;97793.50;;;3.50;90.08
55351;BME280;62194;49.480;10.986;2023-01-08T00:03:38;97789.53;;;3.48;90.21
55351;BME280;62194;49.480;10.986;2023-01-08T00:03:44;97796.22;;;3.50;90.11
55351;BME280;62194;49.480;10.986;2023-01-08T00:03:50;97789.69;;;3.51;90.18
55351;BME280;62194;49.480;10.986;2023-01-08T00:03:55;97784.31;;;3.51;90.06
55351;BME280;62194;49.480;10.986;2023-01-08T00:04:00;97790.50;;;3.52;90.48
55351;BME280;62194;49.480;10.986;2023-01-08T00:04:06;97796.38;;;3.54;90.66
55351;BME280;62194;49.480;10.986;2023-01-08T00:04:11;97797.97;;;3.55;90.71
55351;BME280;62194;49.480;10.986;2023-01-08T00:04:17;97789.38;;;3.53;90.74
55351;BME280;62194;49.480;10.986;2023-01-08T00:04:22;97785.88;;;3.52;90.43
55351;BME280;62194;49.480;10.986;2023-01-08T00:04:27;97789.38;;;3.53;90.73
55351;BME280;62194;49.480;10.986;2023-01-08T00:04:33;97792.91;;;3.54;90.65
55351;BME280;62194;49.480;10.986;2023-01-08T00:04:38;97788.91;;;3.51;90.28
55351;BME280;62194;49.480;10.986;2023-01-08T00:04:44;97793.50;;;3.50;90.18
55351;BME280;62194;49.480;10.986;2023-01-08T00:04:49;97786.50;;;3.49;90.16
55351;BME280;62194;49.480;10.986;2023-01-08T00:04:54;97789.22;;;3.49;90.09
55351;BME280;62194;49.480;10.986;2023-01-08T00:04:59;97786.50;;;3.49;90.09
55351;BME280;62194;49.480;10.986;2023-01-08T00:05:05;97775.25;;;3.47;90.22
55351;BME280;62194;49.480;10.986;2023-01-08T00:05:10;97783.81;;;3.49;89.91
55351;BME280;62194;49.480;10.986;2023-01-08T00:05:16;97785.25;;;3.47;90.12
55351;BME280;62194;49.480;10.986;2023-01-08T00:05:21;97783.34;;;3.47;90.19
55351;BME280;62194;49.480;10.986;2023-01-08T00:05:26;97786.03;;;3.47;90.03
55351;BME280;62194;49.480;10.986;2023-01-08T00:05:32;97783.34;;;3.47;89.99
55351;BME280;62194;49.480;10.986;2023-01-08T00:05:37;97779.38;;;3.45;90.32
55351;BME280;62194;49.480;10.986;2023-01-08T00:05:43;97788.75;;;3.47;90.44
55351;BME280;62194;49.480;10.986;2023-01-08T00:05:48;97785.25;;;3.47;90.17
55351;BME280;62194;49.480;10.986;2023-01-08T00:05:53;97779.03;;;3.46;90.21
55351;BME280;62194;49.480;10.986;2023-01-08T00:06:02;97786.03;;;3.47;90.04
55351;BME280;62194;49.480;10.986;2023-01-08T00:06:11;97779.53;;;3.48;90.15
55351;BME280;62194;49.480;10.986;2023-01-08T00:06:18;97783.81;;;3.49;90.30
55351;BME280;62194;49.480;10.986;2023-01-08T00:06:25;97782.91;;;3.54;90.58
55351;BME280;62194;49.480;10.986;2023-01-08T00:06:30;97779.88;;;3.56;90.75
55351;BME280;62194;49.480;10.986;2023-01-08T00:06:36;97781.78;;;3.55;90.53
55351;BME280;62194;49.480;10.986;2023-01-08T00:06:41;97777.97;;;3.56;90.70
55351;BME280;62194;49.480;10.986;2023-01-08T00:06:46;97780.22;;;3.54;90.14
55351;BME280;62194;49.480;10.986;2023-01-08T00:06:52;97779.09;;;3.55;90.11
55351;BME280;62194;49.480;10.986;2023-01-08T00:06:57;97776.72;;;3.54;90.14
55351;BME280;62194;49.480;10.986;2023-01-08T00:07:02;97780.22;;;3.54;90.19
55351;BME280;62194;49.480;10.986;2023-01-08T00:07:08;97774.81;;;3.54;89.84
55351;BME280;62194;49.480;10.986;2023-01-08T00:07:13;97776.41;;;3.55;90.10
55351;BME280;62194;49.480;10.986;2023-01-08T00:07:18;97781.50;;;3.57;90.17
55351;BME280;62194;49.480;10.986;2023-01-08T00:07:23;97772.28;;;3.58;90.03
55351;BME280;62194;49.480;10.986;2023-01-08T00:07:29;97778.97;;;3.60;90.14
55351;BME280;62194;49.480;10.986;2023-01-08T00:07:34;97778.66;;;3.62;90.09
55351;BME280;62194;49.480;10.986;2023-01-08T00:07:39;97776.75;;;3.62;89.97
55351;BME280;62194;49.480;10.986;2023-01-08T00:07:45;97774.38;;;3.61;89.56
55351;BME280;62194;49.480;10.986;2023-01-08T00:07:50;97774.66;;;3.59;89.63
55351;BME280;62194;49.480;10.986;2023-01-08T00:07:55;97777.69;;;3.58;89.64
55351;BME280;62194;49.480;10.986;2023-01-08T00:08:01;97773.88;;;3.59;89.60
55351;BME280;62194;49.480;10.986;2023-01-08T00:08:08;97779.59;;;3.57;89.25
55351;BME280;62194;49.480;10.986;2023-01-08T00:08:14;97776.28;;;3.60;89.63
55351;BME280;62194;49.480;10.986;2023-01-08T00:08:19;97776.75;;;3.62;89.78
55351;BME280;62194;49.480;10.986;2023-01-08T00:08:24;97780.22;;;3.63;89.58
55351;BME280;62194;49.480;10.986;2023-01-08T00:08:31;97778.03;;;3.65;89.68
55351;BME280;62194;49.480;10.986;2023-01-08T00:08:36;97777.25;;;3.64;89.50
55351;BME280;62194;49.480;10.986;2023-01-08T00:08:42;97774.22;;;3.66;89.65
55351;BME280;62194;49.480;10.986;2023-01-08T00:08:47;97776.63;;;3.67;89.67
55351;BME280;62194;49.480;10.986;2023-01-08T00:08:53;97773.59;;;3.69;89.49
55351;BME280;62194;49.480;10.986;2023-01-08T00:08:58;97772.81;;;3.68;89.34
55351;BME280;62194;49.480;10.986;2023-01-08T00:09:03;97771.22;;;3.67;89.67
55351;BME280;62194;49.480;10.986;2023-01-08T00:09:11;97770.44;;;3.67;89.26
55351;BME280;62194;49.480;10.986;2023-01-08T00:09:17;97770.72;;;3.65;89.09
55351;BME280;62194;49.480;10.986;2023-01-08T00:09:22;97777.41;;;3.68;89.64
55351;BME280;62194;49.480;10.986;2023-01-08T00:09:27;97776.63;;;3.67;89.15
55351;BME280;62194;49.480;10.986;2023-01-08T00:09:33;97770.59;;;3.70;89.16
55351;BME280;62194;49.480;10.986;2023-01-08T00:09:38;97779.16;;;3.72;89.47
55351;BME280;62194;49.480;10.986;2023-01-08T00:09:43;97780.78;;;3.73;89.23
55351;BME280;62194;49.480;10.986;2023-01-08T00:09:48;97773.16;;;3.75;89.26
55351;BME280;62194;49.480;10.986;2023-01-08T00:09:54;97763.19;;;3.76;89.26
55351;BME280;62194;49.480;10.986;2023-01-08T00:09:59;97773.31;;;3.79;88.99
55351;BME280;62194;49.480;10.986;2023-01-08T00:10:05;97776.00;;;3.79;89.10
55351;BME280;62194;49.480;10.986;2023-01-08T00:10:10;97777.91;;;3.79;88.58
55351;BME280;62194;49.480;10.986;2023-01-08T00:10:16;97769.81;;;3.79;88.90
55351;BME280;62194;49.480;10.986;2023-01-08T00:10:21;97776.00;;;3.79;88.78
55351;BME280;62194;49.480;10.986;2023-01-08T00:10:26;97769.03;;;3.78;88.59
55351;BME280;62194;49.480;10.986;2023-01-08T00:10:32;97768.56;;;3.76;88.44
55351;BME280;62194;49.480;10.986;2023-01-08T00:10:38;97771.75;;;3.78;88.59
55351;BME280;62194;49.480;10.986;2023-01-08T00:10:43;97767.75;;;3.75;88.64
55351;BME280;62194;49.480;10.986;2023-01-08T00:10:53;97780.63;;;3.79;88.74
55351;BME280;62194;49.480;10.986;2023-01-08T00:11:00;97771.28;;;3.76;88.59
55351;BME280;62194;49.480;10.986;2023-01-08T00:11:05;97767.47;;;3.77;88.73
55351;BME280;62194;49.480;10.986;2023-01-08T00:11:11;97771.28;;;3.76;88.89
55351;BME280;62194;49.480;10.986;2023-01-08T00:11:16;97767.47;;;3.77;88.88
55351;BME280;62194;49.480;10.986;2023-01-08T00:11:22;97773.66;;;3.78;88.63
55351;BME280;62194;49.480;10.986;2023-01-08T00:11:27;97771.75;;;3.78;89.02
55351;BME280;62194;49.480;10.986;2023-01-08T00:11:32;97764.75;;;3.77;88.92
55351;BME280;62194;49.480;10.986;2023-01-08T00:11:38;97773.97;;;3.76;88.74
55351;BME280;62194;49.480;10.986;2023-01-08T00:11:43;97765.38;;;3.74;88.80
55351;BME280;62194;49.480;10.986;2023-01-08T00:11:48;97770.78;;;3.74;88.44
55351;BME280;62194;49.480;10.986;2023-01-08T00:11:54;97768.38;;;3.72;89.00
55351;BME280;62194;49.480;10.986;2023-01-08T00:11:59;97768.69;;;3.71;89.00
55351;BME280;62194;49.480;10.986;2023-01-08T00:12:05;97768.19;;;3.69;88.74
55351;BME280;62194;49.480;10.986;2023-01-08T00:12:10;97767.41;;;3.68;88.88
55351;BME280;62194;49.480;10.986;2023-01-08T00:12:15;97768.53;;;3.67;88.98
55351;BME280;62194;49.480;10.986;2023-01-08T00:12:21;97772.03;;;3.68;89.05
55351;BME280;62194;49.480;10.986;2023-01-08T00:12:26;97769.31;;;3.68;89.34
55351;BME280;62194;49.480;10.986;2023-01-08T00:12:31;97770.72;;;3.65;89.07
55351;BME280;62194;49.480;10.986;2023-01-08T00:12:36;97771.84;;;3.64;88.98
55351;BME280;62194;49.480;10.986;2023-01-08T00:12:42;97765.16;;;3.62;89.15
55351;BME280;62194;49.480;10.986;2023-01-08T00:12:47;97765.16;;;3.62;89.25
55351;BME280;62194;49.480;10.986;2023-01-08T00:12:54;97766.44;;;3.64;89.31
55351;BME280;62194;49.480;10.986;2023-01-08T00:12:59;97766.13;;;3.66;89.50
55351;BME280;62194;49.480;10.986;2023-01-08T00:13:05;97766.94;;;3.66;89.21
55351;BME280;62194;49.480;10.986;2023-01-08T00:13:11;97767.75;;;3.67;89.05
55351;BME280;62194;49.480;10.986;2023-01-08T00:13:16;97761.72;;;3.70;89.15
55351;BME280;62194;49.480;10.986;2023-01-08T00:13:22;97760.13;;;3.69;89.02
55351;BME280;62194;49.480;10.986;2023-01-08T00:13:27;97758.22;;;3.69;89.16
55351;BME280;62194;49.480;10.986;2023-01-08T00:13:33;97768.19;;;3.69;89.53
55351;BME280;62194;49.480;10.986;2023-01-08T00:13:38;97766.00;;;3.71;89.64
55351;BME280;62194;49.480;10.986;2023-01-08T00:13:44;97757.28;;;3.74;89.01
55351;BME280;62194;49.480;10.986;2023-01-08T00:13:49;97763.47;;;3.74;89.26
55351;BME280;62194;49.480;10.986;2023-01-08T00:13:54;97765.88;;;3.76;89.20
55351;BME280;62194;49.480;10.986;2023-01-08T00:13:59;97759.19;;;3.73;88.93
55351;BME280;62194;49.480;10.986;2023-01-08T00:14:05;97763.19;;;3.76;89.36
55351;BME280;62194;49.480;10.986;2023-01-08T00:14:10;97755.09;;;3.76;89.14
55351;BME280;62194;49.480;10.986;2023-01-08T00:14:15;97753.19;;;3.77;89.21
55351;BME280;62194;49.480;10.986;2023-01-08T00:14:21;97757.13;;;3.79;89.69
55351;BME280;62194;49.480;10.986;2023-01-08T00:14:26;97755.56;;;3.78;89.02
55351;BME280;62194;49.480;10.986;2023-01-08T00:14:31;97761.28;;;3.77;89.09
55351;BME280;62194;49.480;10.986;2023-01-08T00:14:36;97761.56;;;3.75;89.12
55351;BME280;62194;49.480;10.986;2023-01-08T00:14:42;97766.97;;;3.75;88.90
55351;BME280;62194;49.480;10.986;2023-01-08T00:14:47;97757.78;;;3.76;89.18
55351;BME280;62194;49.480;10.986;2023-01-08T00:14:52;97761.75;;;3.79;89.15
55351;BME280;62194;49.480;10.986;2023-01-08T00:14:58;97759.84;;;3.79;88.93
55351;BME280;62194;49.480;10.986;2023-01-08T00:15:03;97752.06;;;3.78;88.39
55351;BME280;62194;49.480;10.986;2023-01-08T00:15:09;97760.94;;;3.78;88.71
55351;BME280;62194;49.480;10.986;2023-01-08T00:15:14;97758.88;;;3.75;88.66
55351;BME280;62194;49.480;10.986;2023-01-08T00:15:20;97756.69;;;3.77;88.91
55351;BME280;62194;49.480;10.986;2023-01-08T00:15:25;97758.56;;;3.77;88.66
55351;BME280;62194;49.480;10.986;2023-01-08T00:15:31;97769.38;;;3.77;88.81
55351;BME280;62194;49.480;10.986;2023-01-08T00:15:37;97759.38;;;3.77;88.97
55351;BME280;62194;49.480;10.986;2023-01-08T00:15:42;97759.84;;;3.79;88.86
55351;BME280;62194;49.480;10.986;2023-01-08T00:15:47;97760.31;;;3.81;88.94
55351;BME280;62194;49.480;10.986;2023-01-08T00:15:53;97766.50;;;3.82;88.76
55351;BME280;62194;49.480;10.986;2023-01-08T00:16:10;97761.91;;;3.82;88.42
55351;BME280;62194;49.480;10.986;2023-01-08T00:16:17;97761.13;;;3.82;88.53
55351;BME280;62194;49.480;10.986;2023-01-08T00:16:22;97755.25;;;3.80;88.75
55351;BME280;62194;49.480;10.986;2023-01-08T00:16:28;97764.44;;;3.79;88.33
55351;BME280;62194;49.480;10.986;2023-01-08T00:16:33;97760.94;;;3.78;88.82
55351;BME280;62194;49.480;10.986;2023-01-08T00:16:39;97761.28;;;3.77;88.54
55351;BME280;62194;49.480;10.986;2023-01-08T00:16:44;97758.88;;;3.75;88.63
55351;BME280;62194;49.480;10.986;2023-01-08T00:16:50;97765.38;;;3.74;88.88
55351;BME280;62194;49.480;10.986;2023-01-08T00:16:55;97762.97;;;3.72;88.47
55351;BME280;62194;49.480;10.986;2023-01-08T00:17:01;97765.69;;;3.72;88.74
55351;BME280;62194;49.480;10.986;2023-01-08T00:17:08;97770.00;;;3.73;89.12
55351;BME280;62194;49.480;10.986;2023-01-08T00:17:13;97766.50;;;3.73;89.03
55351;BME280;62194;49.480;10.986;2023-01-08T00:17:19;97759.50;;;3.72;88.64
55351;BME280;62194;49.480;10.986;2023-01-08T00:17:24;97763.31;;;3.71;88.80
55351;BME280;62194;49.480;10.986;2023-01-08T00:17:29;97763.59;;;3.69;88.59
55351;BME280;62194;49.480;10.986;2023-01-08T00:17:35;97763.59;;;3.69;88.76
55351;BME280;62194;49.480;10.986;2023-01-08T00:17:40;97761.22;;;3.68;89.00
55351;BME280;62194;49.480;10.986;2023-01-08T00:17:46;97758.53;;;3.68;88.56
55351;BME280;62194;49.480;10.986;2023-01-08T00:17:51;97765.22;;;3.70;88.89
55351;BME280;62194;49.480;10.986;2023-01-08T00:17:56;97768.88;;;3.74;88.79
55351;BME280;62194;49.480;10.986;2023-01-08T00:18:02;97770.44;;;3.75;88.90
55351;BME280;62194;49.480;10.986;2023-01-08T00:18:07;97772.34;;;3.75;89.13
55351;BME280;62194;49.480;10.986;2023-01-08T00:18:12;97762.69;;;3.74;89.50
55351;BME280;62194;49.480;10.986;2023-01-08T00:18:18;97768.88;;;3.74;89.31
55351;BME280;62194;49.480;10.986;2023-01-08T00:18:23;97769.19;;;3.73;89.38
55351;BME280;62194;49.480;10.986;2023-01-08T00:18:31;97770.00;;;3.73;89.35
55351;BME280;62194;49.480;10.986;2023-01-08T00:18:37;97761.91;;;3.73;89.45
55351;BME280;62194;49.480;10.986;2023-01-08T00:18:43;97768.06;;;3.74;89.14
55351;BME280;62194;49.480;10.986;2023-01-08T00:18:48;97771.06;;;3.72;88.88
55351;BME280;62194;49.480;10.986;2023-01-08T00:18:54;97773.31;;;3.70;88.78
55351;BME280;62194;49.480;10.986;2023-01-08T00:18:59;97767.13;;;3.70;88.87
55351;BME280;62194;49.480;10.986;2023-01-08T00:19:04;97769.81;;;3.70;89.23
55351;BME280;62194;49.480;10.986;2023-01-08T00:19:10;97768.53;;;3.67;89.15
55351;BME280;62194;49.480;10.986;2023-01-08T00:19:16;97766.63;;;3.68;88.95
55351;BME280;62194;49.480;10.986;2023-01-08T00:19:21;97768.53;;;3.67;88.92
55351;BME280;62194;49.480;10.986;2023-01-08T00:19:27;97770.44;;;3.67;89.03
55351;BME280;62194;49.480;10.986;2023-01-08T00:19:32;97766.13;;;3.66;89.14
55351;BME280;62194;49.480;10.986;2023-01-08T00:19:38;97769.66;;;3.66;89.14
55351;BME280;62194;49.480;10.986;2023-01-08T00:19:46;97767.75;;;3.67;89.46
55351;BME280;62194;49.480;10.986;2023-01-08T00:19:51;97773.91;;;3.67;88.90
55351;BME280;62194;49.480;10.986;2023-01-08T00:19:56;97773.13;;;3.67;89.44
55351;BME280;62194;49.480;10.986;2023-01-08T00:20:02;97770.44;;;3.67;89.18
55351;BME280;62194;49.480;10.986;2023-01-08T00:20:07;97771.84;;;3.64;89.36
55351;BME280;62194;49.480;10.986;2023-01-08T00:20:13;97775.34;;;3.65;89.35
55351;BME280;62194;49.480;10.986;2023-01-08T00:20:18;97767.56;;;3.63;89.30
55351;BME280;62194;49.480;10.986;2023-01-08T00:20:24;97772.47;;;3.61;89.25
55351;BME280;62194;49.480;10.986;2023-01-08T00:20:29;97766.13;;;3.66;89.03
55351;BME280;62194;49.480;10.986;2023-01-08T00:20:35;97773.91;;;3.67;89.33
55351;BME280;62194;49.480;10.986;2023-01-08T00:20:44;97771.22;;;3.67;89.14
55351;BME280;62194;49.480;10.986;2023-01-08T00:20:49;97772.97;;;3.63;89.12
55351;BME280;62194;49.480;10.986;2023-01-08T00:20:55;97770.25;;;3.63;89.48
55351;BME280;62194;49.480;10.986;2023-01-08T00:21:00;97767.06;;;3.61;88.96
55351;BME280;62194;49.480;10.986;2023-01-08T00:21:06;97766.75;;;3.63;89.44
55351;BME280;62194;49.480;10.986;2023-01-08T00:21:12;97770.56;;;3.62;89.54
55351;BME280;62194;49.480;10.986;2023-01-08T00:21:17;97762.47;;;3.62;89.38
55351;BME280;62194;49.480;10.986;2023-01-08T00:21:23;97762.78;;;3.60;89.27
55351;BME280;62194;49.480;10.986;2023-01-08T00:21:28;97773.56;;;3.60;89.44
55351;BME280;62194;49.480;10.986;2023-01-08T00:21:33;97766.28;;;3.61;89.47
55351;BME280;62194;49.480;10.986;2023-01-08T00:21:39;97763.59;;;3.61;89.56
55351;BME280;62194;49.480;10.986;2023-01-08T00:21:44;97765.97;;;3.62;89.18
55351;BME280;62194;49.480;10.986;2023-01-08T00:21:49;97761.69;;;3.61;89.38
55351;BME280;62194;49.480;10.986;2023-01-08T00:21:55;97762.47;;;3.62;89.33
55351;BME280;62194;49.480;10.986;2023-01-08T00:22:00;97778.34;;;3.63;89.27
55351;BME280;62194;49.480;10.986;2023-01-08T00:22:05;97761.34;;;3.63;89.18
55351;BME280;62194;49.480;10.986;2023-01-08T00:22:10;97764.53;;;3.65;89.40
55351;BME280;62194;49.480;10.986;2023-01-08T00:22:16;97759.47;;;3.63;89.32
55351;BME280;62194;49.480;10.986;2023-01-08T00:22:21;97765.66;;;3.64;89.22
55351;BME280;62194;49.480;10.986;2023-01-08T00:22:26;97765.66;;;3.64;89.16
55351;BME280;62194;49.480;10.986;2023-01-08T00:22:32;97765.66;;;3.64;89.46
55351;BME280;62194;49.480;10.986;2023-01-08T00:22:37;97763.44;;;3.66;89.47
55351;BME280;62194;49.480;10.986;2023-01-08T00:22:43;97759.66;;;3.67;89.50
55351;BME280;62194;49.480;10.986;2023-01-08T00:22:49;97763.59;;;3.69;89.59
55351;BME280;62194;49.480;10.986;2023-01-08T00:22:54;97765.50;;;3.69;89.42
55351;BME280;62194;49.480;10.986;2023-01-08T00:22:59;97760.13;;;3.69;89.52
55351;BME280;62194;49.480;10.986;2023-01-08T00:23:04;97762.50;;;3.70;89.58
55351;BME280;62194;49.480;10.986;2023-01-08T00:23:16;97762.34;;;3.67;89.04
55351;BME280;62194;49.480;10.986;2023-01-08T00:23:22;97762.34;;;3.67;89.31
55351;BME280;62194;49.480;10.986;2023-01-08T00:23:28;97763.44;;;3.66;89.44
55351;BME280;62194;49.480;10.986;2023-01-08T00:23:34;97755.66;;;3.64;89.13
55351;BME280;62194;49.480;10.986;2023-01-08T00:23:39;97758.38;;;3.64;89.40
55351;BME280;62194;49.480;10.986;2023-01-08T00:23:45;97761.69;;;3.61;89.27
55351;BME280;62194;49.480;10.986;2023-01-08T00:23:51;97759.31;;;3.60;88.94
55351;BME280;62194;49.480;10.986;2023-01-08T00:23:56;97763.09;;;3.59;89.00
55351;BME280;62194;49.480;10.986;2023-01-08T00:24:01;97760.72;;;3.57;89.28
55351;BME280;62194;49.480;10.986;2023-01-08T00:24:07;97754.22;;;3.58;89.11
55351;BME280;62194;49.480;10.986;2023-01-08T00:24:12;97760.72;;;3.57;89.31
55351;BME280;62194;49.480;10.986;2023-01-08T00:24:17;97764.22;;;3.58;89.25
55351;BME280;62194;49.480;10.986;2023-01-08T00:24:23;97754.53;;;3.57;89.45
55351;BME280;62194;49.480;10.986;2023-01-08T00:24:28;97753.72;;;3.56;89.10
55351;BME280;62194;49.480;10.986;2023-01-08T00:24:33;97762.63;;;3.57;89.22
55351;BME280;62194;49.480;10.986;2023-01-08T00:24:39;97757.22;;;3.57;89.09
55351;BME280;62194;49.480;10.986;2023-01-08T00:24:44;97764.50;;;3.56;89.56
55351;BME280;62194;49.480;10.986;2023-01-08T00:24:49;97761.34;;;3.54;89.33
55351;BME280;62194;49.480;10.986;2023-01-08T00:24:54;97759.09;;;3.56;89.33
55351;BME280;62194;49.480;10.986;2023-01-08T00:25:00;97765.00;;;3.58;89.52
55351;BME280;62194;49.480;10.986;2023-01-08T00:25:05;97758.81;;;3.58;89.64
55351;BME280;62194;49.480;10.986;2023-01-08T00:25:11;97759.09;;;3.56;89.35
55351;BME280;62194;49.480;10.986;2023-01-08T00:25:17;97760.72;;;3.57;89.68
55351;BME280;62194;49.480;10.986;2023-01-08T00:25:22;97755.16;;;3.54;89.79
55351;BME280;62194;49.480;10.986;2023-01-08T00:25:28;97757.84;;;3.54;89.42
55351;BME280;62194;49.480;10.986;2023-01-08T00:25:33;97758.94;;;3.52;89.51
55351;BME280;62194;49.480;10.986;2023-01-08T00:25:38;97760.06;;;3.51;89.64
55351;BME280;62194;49.480;10.986;2023-01-08T00:25:44;97754.97;;;3.50;89.70
55351;BME280;62194;49.480;10.986;2023-01-08T00:25:50;97752.75;;;3.52;89.82
55351;BME280;62194;49.480;10.986;2023-01-08T00:25:55;97765.44;;;3.51;89.39
55351;BME280;62194;49.480;10.986;2023-01-08T00:26:05;97755.28;;;3.48;89.57
55351;BME280;62194;49.480;10.986;2023-01-08T00:26:11;97760.22;;;3.55;89.80
55351;BME280;62194;49.480;10.986;2023-01-08T00:26:17;97758.66;;;3.54;89.88
55351;BME280;62194;49.480;10.986;2023-01-08T00:26:22;97763.53;;;3.52;90.04
55351;BME280;62194;49.480;10.986;2023-01-08T00:26:28;97757.84;;;3.54;90.14
55351;BME280;62194;49.480;10.986;2023-01-08T00:26:34;97756.25;;;3.52;90.49
55351;BME280;62194;49.480;10.986;2023-01-08T00:26:39;97764.31;;;3.52;90.18
55351;BME280;62194;49.480;10.986;2023-01-08T00:26:44;97762.75;;;3.51;89.99
55351;BME280;62194;49.480;10.986;2023-01-08T00:26:50;97757.34;;;3.51;90.18
55351;BME280;62194;49.480;10.986;2023-01-08T00:26:55;97754.66;;;3.51;89.87
55351;BME280;62194;49.480;10.986;2023-01-08T00:27:00;97763.88;;;3.50;89.76
55351;BME280;62194;49.480;10.986;2023-01-08T00:27:05;97755.78;;;3.50;89.67
55351;BME280;62194;49.480;10.986;2023-01-08T00:27:11;97761.16;;;3.50;89.80
55351;BME280;62194;49.480;10.986;2023-01-08T00:27:16;97761.97;;;3.51;89.65
55351;BME280;62194;49.480;10.986;2023-01-08T00:27:21;97761.16;;;3.50;89.78
55351;BME280;62194;49.480;10.986;2023-01-08T00:27:27;97760.38;;;3.50;90.14
55351;BME280;62194;49.480;10.986;2023-01-08T00:27:32;97761.97;;;3.51;89.74
55351;BME280;62194;49.480;10.986;2023-01-08T00:27:37;97761.97;;;3.51;90.14
55351;BME280;62194;49.480;10.986;2023-01-08T00:27:43;97758.94;;;3.52;90.03
55351;BME280;62194;49.480;10.986;2023-01-08T00:27:48;97769.91;;;3.56;90.06
55351;BME280;62194;49.480;10.986;2023-01-08T00:27:54;97764.22;;;3.58;89.95
55351;BME280;62194;49.480;10.986;2023-01-08T00:27:59;97764.69;;;3.60;90.11
55351;BME280;62194;49.480;10.986;2023-01-08T00:28:04;97759.59;;;3.58;89.74
55351;BME280;62194;49.480;10.986;2023-01-08T00:28:10;97762.78;;;3.60;89.89
55351;BME280;62194;49.480;10.986;2023-01-08T00:28:15;97765.16;;;3.62;89.99
55351;BME280;62194;49.480;10.986;2023-01-08T00:28:23;97757.09;;;3.62;89.41
55351;BME280;62194;49.480;10.986;2023-01-08T00:28:29;97760.09;;;3.60;89.65
55351;BME280;62194;49.480;10.986;2023-01-08T00:28:35;97762.78;;;3.60;89.60
55351;BME280;62194;49.480;10.986;2023-01-08T00:28:41;97757.41;;;3.60;89.60
55351;BME280;62194;49.480;10.986;2023-01-08T00:28:46;97761.19;;;3.59;89.35
55351;BME280;62194;49.480;10.986;2023-01-08T00:28:51;97760.41;;;3.59;89.59
55351;BME280;62194;49.480;10.986;2023-01-08T00:28:57;97765.16;;;3.62;89.88
55351;BME280;62194;49.480;10.986;2023-01-08T00:29:02;97768.03;;;3.65;89.77
55351;BME280;62194;49.480;10.986;2023-01-08T00:29:07;97761.06;;;3.64;89.70
55351;BME280;62194;49.480;10.986;2023-01-08T00:29:12;97755.97;;;3.63;89.70
55351;BME280;62194;49.480;10.986;2023-01-08T00:29:18;97759.16;;;3.65;89.45
55351;BME280;62194;49.480;10.986;2023-01-08T00:29:23;97763.75;;;3.64;89.14
55351;BME280;62194;49.480;10.986;2023-01-08T00:29:28;97761.34;;;3.63;89.51
55351;BME280;62194;49.480;10.986;2023-01-08T00:29:34;97762.47;;;3.62;89.47
55351;BME280;62194;49.480;10.986;2023-01-08T00:29:40;97766.28;;;3.61;89.38
55351;BME280;62194;49.480;10.986;2023-01-08T00:29:45;97764.69;;;3.60;89.17
55351;BME280;62194;49.480;10.986;2023-01-08T00:29:51;97758.81;;;3.58;89.58
55351;BME280;62194;49.480;10.986;2023-01-08T00:29:56;97761.50;;;3.58;89.45